Terminal Aerodrome Forecast
Issued by NWS

Home | Current Version | Previous Version | Text Only | Print | Product List | Glossary On
Versions: 1 2 3 4 5 6 7 8 9 10 11 12 13 14 15
000
FTUS43 KDTX 241120
TAFYIP
TAF
KYIP 241120Z 2412/2512 18007KT P6SM BKN250
     FM241700 20010KT P6SM VCSH SCT050 OVC100
     FM242000 22013G20KT 5SM -SHRA BKN040 OVC100
     FM250000 22010G20KT 3SM TSRA OVC030CB
     FM250300 20010KT P6SM SCT040 BKN100 BKN250
     FM250900 20004KT 3SM BR SCT030=

USA.gov is the U.S. government's official web portal to all federal, state and local government web resources and services.